Terminal Aerodrome Forecast
Issued by NWS

Home | Current Version | Previous Version | Text Only | Print | Product List | Glossary On
Versions: 1 2 3 4 5 6 7 8 9 10 11 12 13 14 15 16 17 18
000
FTUS43 KSGF 181720
TAFJLN
TAF
KJLN 181720Z 1818/1918 18021G32KT P6SM SCT250
     FM190200 18019G28KT P6SM BKN020 WS020/21050KT
     FM190400 19020G29KT P6SM VCSH BKN010 WS020/21055KT
     FM191200 19023G31KT P6SM SHRA OVC015 WS020/21055KT
     FM191400 19023G32KT P6SM SHRA OVC015=

USA.gov is the U.S. government's official web portal to all federal, state and local government web resources and services.